sensor_id;sensor_type;location;lat;lon;timestamp;temperature;humidity
10864;DHT22;5485;37.558;126.950;2023-04-06T00:00:58;9.90;99.90
10864;DHT22;5485;37.558;126.950;2023-04-06T00:03:26;9.90;99.90
10864;DHT22;5485;37.558;126.950;2023-04-06T00:05:52;9.90;99.90
10864;DHT22;5485;37.558;126.950;2023-04-06T00:08:19;9.80;99.90
10864;DHT22;5485;37.558;126.950;2023-04-06T00:10:47;9.70;99.90
10864;DHT22;5485;37.558;126.950;2023-04-06T00:13:15;9.80;99.90
10864;DHT22;5485;37.558;126.950;2023-04-06T00:15:42;9.80;99.90
10864;DHT22;5485;37.558;126.950;2023-04-06T00:18:09;9.80;99.90
10864;DHT22;5485;37.558;126.950;2023-04-06T00:20:36;9.80;99.90
10864;DHT22;5485;37.558;126.950;2023-04-06T00:23:03;9.80;99.90
10864;DHT22;5485;37.558;126.950;2023-04-06T00:25:31;9.80;99.90
10864;DHT22;5485;37.558;126.950;2023-04-06T00:27:57;9.80;99.90
10864;DHT22;5485;37.558;126.950;2023-04-06T00:30:24;9.80;99.90
10864;DHT22;5485;37.558;126.950;2023-04-06T00:32:54;9.80;99.90
10864;DHT22;5485;37.558;126.950;2023-04-06T00:35:21;9.80;99.90
10864;DHT22;5485;37.558;126.950;2023-04-06T00:37:48;9.80;99.90
10864;DHT22;5485;37.558;126.950;2023-04-06T00:40:16;9.80;99.90
10864;DHT22;5485;37.558;126.950;2023-04-06T00:42:43;9.70;99.90
10864;DHT22;5485;37.558;126.950;2023-04-06T00:45:10;9.80;99.90
10864;DHT22;5485;37.558;126.950;2023-04-06T00:47:38;9.80;99.90
10864;DHT22;5485;37.558;126.950;2023-04-06T00:50:05;9.80;99.90
10864;DHT22;5485;37.558;126.950;2023-04-06T00:52:35;9.80;99.90
10864;DHT22;5485;37.558;126.950;2023-04-06T00:55:03;9.80;99.90
10864;DHT22;5485;37.558;126.950;2023-04-06T00:57:31;9.80;99.90
10864;DHT22;5485;37.558;126.950;2023-04-06T00:59:58;9.70;99.90
10864;DHT22;5485;37.558;126.950;2023-04-06T01:02:25;9.70;99.90
10864;DHT22;5485;37.558;126.950;2023-04-06T01:04:53;9.70;99.90
10864;DHT22;5485;37.558;126.950;2023-04-06T01:07:20;9.60;99.90
10864;DHT22;5485;37.558;126.950;2023-04-06T01:09:47;9.60;99.90
10864;DHT22;5485;37.558;126.950;2023-04-06T01:12:14;9.70;99.90
10864;DHT22;5485;37.558;126.950;2023-04-06T01:14:41;9.70;99.90
10864;DHT22;5485;37.558;126.950;2023-04-06T01:17:11;9.90;99.90
10864;DHT22;5485;37.558;126.950;2023-04-06T01:19:38;9.80;99.90
10864;DHT22;5485;37.558;126.950;2023-04-06T01:22:07;9.70;99.90
10864;DHT22;5485;37.558;126.950;2023-04-06T01:24:34;9.80;99.90
10864;DHT22;5485;37.558;126.950;2023-04-06T01:27:07;9.80;99.90
10864;DHT22;5485;37.558;126.950;2023-04-06T01:29:34;9.80;99.90
10864;DHT22;5485;37.558;126.950;2023-04-06T01:32:01;9.80;99.90
10864;DHT22;5485;37.558;126.950;2023-04-06T01:34:28;9.80;99.90
10864;DHT22;5485;37.558;126.950;2023-04-06T01:36:55;9.80;99.90
10864;DHT22;5485;37.558;126.950;2023-04-06T01:39:22;9.90;99.90
10864;DHT22;5485;37.558;126.950;2023-04-06T01:41:49;9.90;99.90
10864;DHT22;5485;37.558;126.950;2023-04-06T01:44:19;9.90;99.90
10864;DHT22;5485;37.558;126.950;2023-04-06T01:46:46;9.90;99.90
10864;DHT22;5485;37.558;126.950;2023-04-06T01:49:13;10.00;99.90
10864;DHT22;5485;37.558;126.950;2023-04-06T01:51:40;10.10;99.90
10864;DHT22;5485;37.558;126.950;2023-04-06T01:54:07;10.10;99.90
10864;DHT22;5485;37.558;126.950;2023-04-06T01:56:34;10.20;99.90
10864;DHT22;5485;37.558;126.950;2023-04-06T01:59:01;10.30;99.90
10864;DHT22;5485;37.558;126.950;2023-04-06T02:01:28;10.40;99.90
10864;DHT22;5485;37.558;126.950;2023-04-06T02:03:56;10.40;99.90
10864;DHT22;5485;37.558;126.950;2023-04-06T02:06:23;10.50;99.90
10864;DHT22;5485;37.558;126.950;2023-04-06T02:08:49;10.50;99.90
10864;DHT22;5485;37.558;126.950;2023-04-06T02:11:16;10.60;99.90
10864;DHT22;5485;37.558;126.950;2023-04-06T02:13:46;10.60;99.90
10864;DHT22;5485;37.558;126.950;2023-04-06T02:16:13;10.60;99.90
10864;DHT22;5485;37.558;126.950;2023-04-06T02:18:41;10.60;99.90
10864;DHT22;5485;37.558;126.950;2023-04-06T02:21:08;10.50;99.90
10864;DHT22;5485;37.558;126.950;2023-04-06T02:23:35;10.40;99.90
10864;DHT22;5485;37.558;126.950;2023-04-06T02:26:02;10.40;99.90
10864;DHT22;5485;37.558;126.950;2023-04-06T02:28:29;10.50;99.90
10864;DHT22;5485;37.558;126.950;2023-04-06T02:30:56;10.50;99.90
10864;DHT22;5485;37.558;126.950;2023-04-06T02:33:23;10.50;99.90
10864;DHT22;5485;37.558;126.950;2023-04-06T02:35:50;10.50;99.90
10864;DHT22;5485;37.558;126.950;2023-04-06T02:38:17;10.50;99.90
10864;DHT22;5485;37.558;126.950;2023-04-06T02:40:44;10.50;99.90
10864;DHT22;5485;37.558;126.950;2023-04-06T02:43:11;10.50;99.90
10864;DHT22;5485;37.558;126.950;2023-04-06T02:45:38;10.60;99.90
10864;DHT22;5485;37.558;126.950;2023-04-06T02:48:05;10.50;99.90
10864;DHT22;5485;37.558;126.950;2023-04-06T02:50:32;10.60;99.90
10864;DHT22;5485;37.558;126.950;2023-04-06T02:52:59;10.50;99.90
10864;DHT22;5485;37.558;126.950;2023-04-06T02:55:26;10.50;99.90
10864;DHT22;5485;37.558;126.950;2023-04-06T02:57:53;10.50;99.90
10864;DHT22;5485;37.558;126.950;2023-04-06T03:00:20;10.50;99.90
10864;DHT22;5485;37.558;126.950;2023-04-06T03:02:47;10.50;99.90
10864;DHT22;5485;37.558;126.950;2023-04-06T03:05:14;10.50;99.90
10864;DHT22;5485;37.558;126.950;2023-04-06T03:07:41;10.50;99.90
10864;DHT22;5485;37.558;126.950;2023-04-06T03:10:08;10.60;99.90
10864;DHT22;5485;37.558;126.950;2023-04-06T03:12:36;10.60;99.90
10864;DHT22;5485;37.558;126.950;2023-04-06T03:15:05;10.70;99.90
10864;DHT22;5485;37.558;126.950;2023-04-06T03:17:32;10.70;99.90
10864;DHT22;5485;37.558;126.950;2023-04-06T03:19:59;10.70;99.90
10864;DHT22;5485;37.558;126.950;2023-04-06T03:22:26;10.70;99.90
10864;DHT22;5485;37.558;126.950;2023-04-06T03:24:53;10.60;99.90
10864;DHT22;5485;37.558;126.950;2023-04-06T03:27:20;10.60;99.90
10864;DHT22;5485;37.558;126.950;2023-04-06T03:33:01;10.50;99.90
10864;DHT22;5485;37.558;126.950;2023-04-06T03:35:28;10.50;99.90
10864;DHT22;5485;37.558;126.950;2023-04-06T03:37:55;10.50;99.90
10864;DHT22;5485;37.558;126.950;2023-04-06T03:40:22;10.50;99.90
10864;DHT22;5485;37.558;126.950;2023-04-06T03:42:49;10.50;99.90
10864;DHT22;5485;37.558;126.950;2023-04-06T03:45:17;10.50;99.90
10864;DHT22;5485;37.558;126.950;2023-04-06T03:47:44;10.50;99.90
10864;DHT22;5485;37.558;126.950;2023-04-06T03:50:11;10.50;99.90
10864;DHT22;5485;37.558;126.950;2023-04-06T03:52:38;10.50;99.90
10864;DHT22;5485;37.558;126.950;2023-04-06T03:55:05;10.40;99.90
10864;DHT22;5485;37.558;126.950;2023-04-06T03:57:32;10.40;99.90
10864;DHT22;5485;37.558;126.950;2023-04-06T03:59:59;10.50;99.90
10864;DHT22;5485;37.558;126.950;2023-04-06T04:02:26;10.50;99.90
10864;DHT22;5485;37.558;126.950;2023-04-06T04:04:53;10.70;99.90
10864;DHT22;5485;37.558;126.950;2023-04-06T04:07:20;10.70;99.90
10864;DHT22;5485;37.558;126.950;2023-04-06T04:09:47;10.80;99.90
10864;DHT22;5485;37.558;126.950;2023-04-06T04:12:16;10.80;99.90
10864;DHT22;5485;37.558;126.950;2023-04-06T04:14:43;10.90;99.90
10864;DHT22;5485;37.558;126.950;2023-04-06T04:17:10;10.90;99.90
10864;DHT22;5485;37.558;126.950;2023-04-06T04:19:37;11.00;99.90
10864;DHT22;5485;37.558;126.950;2023-04-06T04:22:04;11.10;99.90
10864;DHT22;5485;37.558;126.950;2023-04-06T04:24:32;11.20;99.90
10864;DHT22;5485;37.558;126.950;2023-04-06T04:27:00;11.10;99.90
10864;DHT22;5485;37.558;126.950;2023-04-06T04:29:31;11.10;99.90
10864;DHT22;5485;37.558;126.950;2023-04-06T04:31:58;11.20;99.90
10864;DHT22;5485;37.558;126.950;2023-04-06T04:34:25;11.20;99.90
10864;DHT22;5485;37.558;126.950;2023-04-06T04:36:52;11.20;99.90
10864;DHT22;5485;37.558;126.950;2023-04-06T04:39:19;11.10;99.90
10864;DHT22;5485;37.558;126.950;2023-04-06T04:41:46;11.10;99.90
10864;DHT22;5485;37.558;126.950;2023-04-06T04:44:13;11.00;99.90
10864;DHT22;5485;37.558;126.950;2023-04-06T04:46:42;10.90;99.90
10864;DHT22;5485;37.558;126.950;2023-04-06T04:49:10;10.90;99.90
10864;DHT22;5485;37.558;126.950;2023-04-06T04:51:37;10.70;99.90
10864;DHT22;5485;37.558;126.950;2023-04-06T04:54:04;10.60;99.90
10864;DHT22;5485;37.558;126.950;2023-04-06T04:56:31;10.50;99.90
10864;DHT22;5485;37.558;126.950;2023-04-06T04:58:58;10.50;99.90
10864;DHT22;5485;37.558;126.950;2023-04-06T05:01:25;10.40;99.90
10864;DHT22;5485;37.558;126.950;2023-04-06T05:03:52;10.50;99.90
10864;DHT22;5485;37.558;126.950;2023-04-06T05:06:19;10.50;99.90
10864;DHT22;5485;37.558;126.950;2023-04-06T05:08:46;10.50;99.90
10864;DHT22;5485;37.558;126.950;2023-04-06T05:11:13;10.50;99.90
10864;DHT22;5485;37.558;126.950;2023-04-06T05:13:40;10.30;99.90
10864;DHT22;5485;37.558;126.950;2023-04-06T05:16:07;10.30;99.90
10864;DHT22;5485;37.558;126.950;2023-04-06T05:18:34;10.20;99.90
10864;DHT22;5485;37.558;126.950;2023-04-06T05:21:01;10.20;99.90
10864;DHT22;5485;37.558;126.950;2023-04-06T05:23:28;10.30;99.90
10864;DHT22;5485;37.558;126.950;2023-04-06T05:25:56;10.30;99.90
10864;DHT22;5485;37.558;126.950;2023-04-06T05:28:23;10.30;99.90
10864;DHT22;5485;37.558;126.950;2023-04-06T05:30:50;10.20;99.90
10864;DHT22;5485;37.558;126.950;2023-04-06T05:33:17;10.30;99.90
10864;DHT22;5485;37.558;126.950;2023-04-06T05:35:44;10.30;99.90
10864;DHT22;5485;37.558;126.950;2023-04-06T05:38:11;10.30;99.90
10864;DHT22;5485;37.558;126.950;2023-04-06T05:40:38;10.30;99.90
10864;DHT22;5485;37.558;126.950;2023-04-06T05:43:07;10.30;99.90
10864;DHT22;5485;37.558;126.950;2023-04-06T05:45:34;10.20;99.90
10864;DHT22;5485;37.558;126.950;2023-04-06T05:48:02;10.20;99.90
10864;DHT22;5485;37.558;126.950;2023-04-06T05:50:29;10.10;99.90
10864;DHT22;5485;37.558;126.950;2023-04-06T05:52:56;10.00;99.90
10864;DHT22;5485;37.558;126.950;2023-04-06T05:55:23;10.00;99.90
10864;DHT22;5485;37.558;126.950;2023-04-06T05:57:50;9.90;99.90
10864;DHT22;5485;37.558;126.950;2023-04-06T06:00:17;9.90;99.90
10864;DHT22;5485;37.558;126.950;2023-04-06T06:02:44;9.90;99.90
10864;DHT22;5485;37.558;126.950;2023-04-06T06:05:11;9.90;99.90
10864;DHT22;5485;37.558;126.950;2023-04-06T06:07:38;9.90;99.90
10864;DHT22;5485;37.558;126.950;2023-04-06T06:10:06;9.90;99.90
10864;DHT22;5485;37.558;126.950;2023-04-06T06:12:33;9.80;99.90
10864;DHT22;5485;37.558;126.950;2023-04-06T06:15:00;9.80;99.90
10864;DHT22;5485;37.558;126.950;2023-04-06T06:17:27;9.80;99.90
10864;DHT22;5485;37.558;126.950;2023-04-06T06:19:55;9.80;99.90
10864;DHT22;5485;37.558;126.950;2023-04-06T06:22:22;9.80;99.90
10864;DHT22;5485;37.558;126.950;2023-04-06T06:24:49;9.90;99.90
10864;DHT22;5485;37.558;126.950;2023-04-06T06:27:16;9.80;99.90
10864;DHT22;5485;37.558;126.950;2023-04-06T06:29:43;9.70;99.90
10864;DHT22;5485;37.558;126.950;2023-04-06T06:32:10;9.70;99.90
10864;DHT22;5485;37.558;126.950;2023-04-06T06:34:37;9.80;99.90
10864;DHT22;5485;37.558;126.950;2023-04-06T06:37:05;9.80;99.90
10864;DHT22;5485;37.558;126.950;2023-04-06T06:39:32;9.80;99.90
10864;DHT22;5485;37.558;126.950;2023-04-06T06:41:59;9.90;99.90
10864;DHT22;5485;37.558;126.950;2023-04-06T06:44:30;9.90;99.90
10864;DHT22;5485;37.558;126.950;2023-04-06T06:46:57;9.90;99.90
10864;DHT22;5485;37.558;126.950;2023-04-06T06:49:24;9.90;99.90
10864;DHT22;5485;37.558;126.950;2023-04-06T06:51:51;9.90;99.90
10864;DHT22;5485;37.558;126.950;2023-04-06T06:54:18;9.90;99.90
10864;DHT22;5485;37.558;126.950;2023-04-06T06:56:45;9.90;99.90
10864;DHT22;5485;37.558;126.950;2023-04-06T06:59:13;10.00;99.90
10864;DHT22;5485;37.558;126.950;2023-04-06T07:01:40;10.00;99.90
10864;DHT22;5485;37.558;126.950;2023-04-06T07:04:06;10.00;99.90
10864;DHT22;5485;37.558;126.950;2023-04-06T07:06:37;10.10;99.90
10864;DHT22;5485;37.558;126.950;2023-04-06T07:09:04;10.10;99.90
10864;DHT22;5485;37.558;126.950;2023-04-06T07:11:31;10.00;99.90
10864;DHT22;5485;37.558;126.950;2023-04-06T07:13:58;10.00;99.90
10864;DHT22;5485;37.558;126.950;2023-04-06T07:16:26;10.00;99.90
10864;DHT22;5485;37.558;126.950;2023-04-06T07:18:53;10.10;99.90
10864;DHT22;5485;37.558;126.950;2023-04-06T07:21:20;10.20;99.90
10864;DHT22;5485;37.558;126.950;2023-04-06T07:23:47;10.20;99.90
10864;DHT22;5485;37.558;126.950;2023-04-06T07:26:14;10.20;99.90
10864;DHT22;5485;37.558;126.950;2023-04-06T07:28:41;10.20;99.90
10864;DHT22;5485;37.558;126.950;2023-04-06T07:31:08;10.30;99.90
10864;DHT22;5485;37.558;126.950;2023-04-06T07:33:36;10.40;99.90
10864;DHT22;5485;37.558;126.950;2023-04-06T07:36:03;10.40;99.90
10864;DHT22;5485;37.558;126.950;2023-04-06T07:38:31;10.50;99.90
10864;DHT22;5485;37.558;126.950;2023-04-06T07:40:58;10.40;99.90
10864;DHT22;5485;37.558;126.950;2023-04-06T07:43:25;10.40;99.90
10864;DHT22;5485;37.558;126.950;2023-04-06T07:45:52;10.30;99.90
10864;DHT22;5485;37.558;126.950;2023-04-06T07:48:23;10.40;99.90
10864;DHT22;5485;37.558;126.950;2023-04-06T07:50:50;10.50;99.90
10864;DHT22;5485;37.558;126.950;2023-04-06T07:53:17;10.50;99.90
10864;DHT22;5485;37.558;126.950;2023-04-06T07:55:44;10.50;99.90
10864;DHT22;5485;37.558;126.950;2023-04-06T07:58:11;10.60;99.90
10864;DHT22;5485;37.558;126.950;2023-04-06T08:00:38;10.60;99.90
10864;DHT22;5485;37.558;126.950;2023-04-06T08:03:05;10.60;99.90
10864;DHT22;5485;37.558;126.950;2023-04-06T08:05:33;10.60;99.90
10864;DHT22;5485;37.558;126.950;2023-04-06T08:08:00;10.60;99.90
10864;DHT22;5485;37.558;126.950;2023-04-06T08:10:27;10.60;99.90
10864;DHT22;5485;37.558;126.950;2023-04-06T08:12:54;10.60;99.90
10864;DHT22;5485;37.558;126.950;2023-04-06T08:15:21;10.60;99.90
10864;DHT22;5485;37.558;126.950;2023-04-06T08:17:48;10.60;99.90
10864;DHT22;5485;37.558;126.950;2023-04-06T08:20:15;10.60;99.90
10864;DHT22;5485;37.558;126.950;2023-04-06T08:22:42;10.60;99.90
10864;DHT22;5485;37.558;126.950;2023-04-06T08:25:09;10.60;99.90
10864;DHT22;5485;37.558;126.950;2023-04-06T08:27:36;10.60;99.90
10864;DHT22;5485;37.558;126.950;2023-04-06T08:30:03;10.50;99.90
10864;DHT22;5485;37.558;126.950;2023-04-06T08:32:30;10.50;99.90
10864;DHT22;5485;37.558;126.950;2023-04-06T08:34:57;10.60;99.90
10864;DHT22;5485;37.558;126.950;2023-04-06T08:37:25;10.40;99.90
10864;DHT22;5485;37.558;126.950;2023-04-06T08:39:52;10.40;99.90
10864;DHT22;5485;37.558;126.950;2023-04-06T08:42:22;10.30;99.90
10864;DHT22;5485;37.558;126.950;2023-04-06T08:44:52;10.40;99.90
10864;DHT22;5485;37.558;126.950;2023-04-06T08:47:20;10.30;99.90
10864;DHT22;5485;37.558;126.950;2023-04-06T08:49:47;10.30;99.90
10864;DHT22;5485;37.558;126.950;2023-04-06T08:52:18;10.30;99.90
10864;DHT22;5485;37.558;126.950;2023-04-06T08:54:45;10.30;99.90
10864;DHT22;5485;37.558;126.950;2023-04-06T08:57:13;10.30;99.90
10864;DHT22;5485;37.558;126.950;2023-04-06T08:59:40;10.20;99.90
10864;DHT22;5485;37.558;126.950;2023-04-06T09:02:13;10.10;99.90
10864;DHT22;5485;37.558;126.950;2023-04-06T09:04:45;10.00;99.90
10864;DHT22;5485;37.558;126.950;2023-04-06T09:07:13;9.90;99.90
10864;DHT22;5485;37.558;126.950;2023-04-06T09:09:41;9.90;99.90
10864;DHT22;5485;37.558;126.950;2023-04-06T09:12:27;9.90;99.90
10864;DHT22;5485;37.558;126.950;2023-04-06T09:14:55;9.80;99.90
10864;DHT22;5485;37.558;126.950;2023-04-06T09:17:27;9.70;99.90
10864;DHT22;5485;37.558;126.950;2023-04-06T09:20:05;9.80;99.90
10864;DHT22;5485;37.558;126.950;2023-04-06T09:22:39;9.70;99.90
10864;DHT22;5485;37.558;126.950;2023-04-06T09:25:07;9.80;99.90
10864;DHT22;5485;37.558;126.950;2023-04-06T09:27:36;9.80;99.90
10864;DHT22;5485;37.558;126.950;2023-04-06T09:30:08;9.80;99.90
10864;DHT22;5485;37.558;126.950;2023-04-06T09:32:46;9.90;99.90
10864;DHT22;5485;37.558;126.950;2023-04-06T09:35:14;9.80;99.90
10864;DHT22;5485;37.558;126.950;2023-04-06T09:37:42;9.70;99.90
10864;DHT22;5485;37.558;126.950;2023-04-06T09:40:10;9.70;99.90
10864;DHT22;5485;37.558;126.950;2023-04-06T09:42:37;9.60;99.90
10864;DHT22;5485;37.558;126.950;2023-04-06T09:45:04;9.50;99.90
10864;DHT22;5485;37.558;126.950;2023-04-06T09:47:31;9.50;99.90
10864;DHT22;5485;37.558;126.950;2023-04-06T09:50:00;9.50;99.90
10864;DHT22;5485;37.558;126.950;2023-04-06T09:52:33;9.50;99.90
10864;DHT22;5485;37.558;126.950;2023-04-06T09:55:03;9.50;99.90
10864;DHT22;5485;37.558;126.950;2023-04-06T09:58:03;9.50;99.90
10864;DHT22;5485;37.558;126.950;2023-04-06T10:00:40;9.50;99.90
10864;DHT22;5485;37.558;126.950;2023-04-06T10:06:02;9.40;99.90
10864;DHT22;5485;37.558;126.950;2023-04-06T10:08:33;9.40;99.90
10864;DHT22;5485;37.558;126.950;2023-04-06T10:11:01;9.30;99.90
10864;DHT22;5485;37.558;126.950;2023-04-06T10:13:29;9.30;99.90
10864;DHT22;5485;37.558;126.950;2023-04-06T10:15:56;9.30;99.90
10864;DHT22;5485;37.558;126.950;2023-04-06T10:18:24;9.20;99.90
10864;DHT22;5485;37.558;126.950;2023-04-06T10:21:01;9.20;99.90
10864;DHT22;5485;37.558;126.950;2023-04-06T10:26:12;9.10;99.90
10864;DHT22;5485;37.558;126.950;2023-04-06T10:28:42;9.10;99.90
10864;DHT22;5485;37.558;126.950;2023-04-06T10:31:10;9.00;99.90
10864;DHT22;5485;37.558;126.950;2023-04-06T10:33:37;9.00;99.90
10864;DHT22;5485;37.558;126.950;2023-04-06T10:36:25;8.90;99.90
10864;DHT22;5485;37.558;126.950;2023-04-06T10:39:04;8.80;99.90
10864;DHT22;5485;37.558;126.950;2023-04-06T10:41:44;8.80;99.90
10864;DHT22;5485;37.558;126.950;2023-04-06T10:44:24;8.90;99.90
10864;DHT22;5485;37.558;126.950;2023-04-06T10:46:59;8.80;99.90
10864;DHT22;5485;37.558;126.950;2023-04-06T10:49:29;8.80;99.90
10864;DHT22;5485;37.558;126.950;2023-04-06T10:51:56;8.80;99.90
10864;DHT22;5485;37.558;126.950;2023-04-06T10:54:25;8.80;99.90
10864;DHT22;5485;37.558;126.950;2023-04-06T10:56:53;8.70;99.90
10864;DHT22;5485;37.558;126.950;2023-04-06T10:59:21;8.80;99.90
10864;DHT22;5485;37.558;126.950;2023-04-06T11:01:49;8.70;99.90
10864;DHT22;5485;37.558;126.950;2023-04-06T11:04:20;8.60;99.90
10864;DHT22;5485;37.558;126.950;2023-04-06T11:06:49;8.60;99.90
10864;DHT22;5485;37.558;126.950;2023-04-06T11:09:27;8.60;99.90
10864;DHT22;5485;37.558;126.950;2023-04-06T11:11:55;8.60;99.90
10864;DHT22;5485;37.558;126.950;2023-04-06T11:14:23;8.60;99.90
10864;DHT22;5485;37.558;126.950;2023-04-06T11:16:50;8.60;99.90
10864;DHT22;5485;37.558;126.950;2023-04-06T11:19:18;8.60;99.90
10864;DHT22;5485;37.558;126.950;2023-04-06T11:21:49;8.60;99.90
10864;DHT22;5485;37.558;126.950;2023-04-06T11:24:22;8.50;99.90
10864;DHT22;5485;37.558;126.950;2023-04-06T11:26:54;8.50;99.90
10864;DHT22;5485;37.558;126.950;2023-04-06T11:29:24;8.50;99.90
10864;DHT22;5485;37.558;126.950;2023-04-06T11:32:03;8.50;99.90
10864;DHT22;5485;37.558;126.950;2023-04-06T11:34:35;8.50;99.90
10864;DHT22;5485;37.558;126.950;2023-04-06T11:37:08;8.40;99.90
10864;DHT22;5485;37.558;126.950;2023-04-06T11:39:40;8.40;99.90
10864;DHT22;5485;37.558;126.950;2023-04-06T11:42:08;8.20;99.90
10864;DHT22;5485;37.558;126.950;2023-04-06T11:47:10;8.50;99.90
10864;DHT22;5485;37.558;126.950;2023-04-06T11:49:42;8.40;99.90
10864;DHT22;5485;37.558;126.950;2023-04-06T11:52:23;8.70;99.90
10864;DHT22;5485;37.558;126.950;2023-04-06T11:54:52;8.50;99.90
10864;DHT22;5485;37.558;126.950;2023-04-06T11:57:29;8.40;99.90
10864;DHT22;5485;37.558;126.950;2023-04-06T11:59:57;8.40;99.90
10864;DHT22;5485;37.558;126.950;2023-04-06T12:02:27;8.30;99.90
10864;DHT22;5485;37.558;126.950;2023-04-06T12:04:54;8.30;99.90
10864;DHT22;5485;37.558;126.950;2023-04-06T12:07:22;8.30;99.90
10864;DHT22;5485;37.558;126.950;2023-04-06T12:09:49;7.90;99.90
10864;DHT22;5485;37.558;126.950;2023-04-06T12:12:16;8.40;99.90
10864;DHT22;5485;37.558;126.950;2023-04-06T12:14:46;8.40;99.90
10864;DHT22;5485;37.558;126.950;2023-04-06T12:17:18;8.30;99.90
10864;DHT22;5485;37.558;126.950;2023-04-06T12:19:49;8.40;99.90
10864;DHT22;5485;37.558;126.950;2023-04-06T12:22:17;8.40;99.90
10864;DHT22;5485;37.558;126.950;2023-04-06T12:24:44;8.30;99.90
10864;DHT22;5485;37.558;126.950;2023-04-06T12:27:11;8.40;99.90
10864;DHT22;5485;37.558;126.950;2023-04-06T12:29:38;8.30;99.90
10864;DHT22;5485;37.558;126.950;2023-04-06T12:32:05;8.40;99.90
10864;DHT22;5485;37.558;126.950;2023-04-06T12:34:32;8.30;99.90
10864;DHT22;5485;37.558;126.950;2023-04-06T12:36:59;8.30;99.90
10864;DHT22;5485;37.558;126.950;2023-04-06T12:39:28;8.30;99.90
10864;DHT22;5485;37.558;126.950;2023-04-06T12:41:54;8.40;99.90
10864;DHT22;5485;37.558;126.950;2023-04-06T12:44:22;8.40;99.90
10864;DHT22;5485;37.558;126.950;2023-04-06T12:46:49;8.40;99.90
10864;DHT22;5485;37.558;126.950;2023-04-06T12:49:16;8.40;99.90
10864;DHT22;5485;37.558;126.950;2023-04-06T12:51:45;8.40;99.90
10864;DHT22;5485;37.558;126.950;2023-04-06T12:54:12;8.30;99.90
10864;DHT22;5485;37.558;126.950;2023-04-06T12:56:41;8.40;99.90
10864;DHT22;5485;37.558;126.950;2023-04-06T12:59:08;8.40;99.90
10864;DHT22;5485;37.558;126.950;2023-04-06T13:01:35;8.40;99.90
10864;DHT22;5485;37.558;126.950;2023-04-06T13:04:02;8.40;99.90
10864;DHT22;5485;37.558;126.950;2023-04-06T13:06:29;8.40;99.90
10864;DHT22;5485;37.558;126.950;2023-04-06T13:08:56;8.30;99.90
10864;DHT22;5485;37.558;126.950;2023-04-06T13:11:23;8.30;99.90
10864;DHT22;5485;37.558;126.950;2023-04-06T13:13:51;8.30;99.90
10864;DHT22;5485;37.558;126.950;2023-04-06T13:16:17;8.20;99.90
10864;DHT22;5485;37.558;126.950;2023-04-06T13:18:45;8.20;99.90
10864;DHT22;5485;37.558;126.950;2023-04-06T13:21:14;8.20;99.90
10864;DHT22;5485;37.558;126.950;2023-04-06T13:23:46;8.20;99.90
10864;DHT22;5485;37.558;126.950;2023-04-06T13:26:13;8.20;99.90
10864;DHT22;5485;37.558;126.950;2023-04-06T13:28:41;8.30;99.90
10864;DHT22;5485;37.558;126.950;2023-04-06T13:31:08;8.30;99.90
10864;DHT22;5485;37.558;126.950;2023-04-06T13:33:36;8.20;99.90
10864;DHT22;5485;37.558;126.950;2023-04-06T13:36:03;8.20;99.90
10864;DHT22;5485;37.558;126.950;2023-04-06T13:38:30;8.20;99.90
10864;DHT22;5485;37.558;126.950;2023-04-06T13:41:01;8.20;99.90
10864;DHT22;5485;37.558;126.950;2023-04-06T13:43:28;8.20;99.90
10864;DHT22;5485;37.558;126.950;2023-04-06T13:45:57;8.20;99.90
10864;DHT22;5485;37.558;126.950;2023-04-06T13:48:26;8.30;99.90
10864;DHT22;5485;37.558;126.950;2023-04-06T13:50:53;8.20;99.90
10864;DHT22;5485;37.558;126.950;2023-04-06T13:53:20;8.20;99.90
10864;DHT22;5485;37.558;126.950;2023-04-06T13:55:55;8.20;99.90
10864;DHT22;5485;37.558;126.950;2023-04-06T13:58:22;8.30;99.90
10864;DHT22;5485;37.558;126.950;2023-04-06T14:00:51;8.20;99.90
10864;DHT22;5485;37.558;126.950;2023-04-06T14:03:19;8.10;99.90
10864;DHT22;5485;37.558;126.950;2023-04-06T14:05:46;8.10;99.90
10864;DHT22;5485;37.558;126.950;2023-04-06T14:08:13;8.10;99.90
10864;DHT22;5485;37.558;126.950;2023-04-06T14:10:41;8.10;99.90
10864;DHT22;5485;37.558;126.950;2023-04-06T14:13:11;8.10;99.90
10864;DHT22;5485;37.558;126.950;2023-04-06T14:15:38;8.10;99.90
10864;DHT22;5485;37.558;126.950;2023-04-06T14:18:05;8.20;99.90
10864;DHT22;5485;37.558;126.950;2023-04-06T14:20:32;8.20;99.90
10864;DHT22;5485;37.558;126.950;2023-04-06T14:23:03;8.20;99.90
10864;DHT22;5485;37.558;126.950;2023-04-06T14:25:31;8.10;99.90
10864;DHT22;5485;37.558;126.950;2023-04-06T14:27:58;8.10;99.90
10864;DHT22;5485;37.558;126.950;2023-04-06T14:30:25;8.10;99.90
10864;DHT22;5485;37.558;126.950;2023-04-06T14:32:57;8.10;99.90
10864;DHT22;5485;37.558;126.950;2023-04-06T14:35:24;8.00;99.90
10864;DHT22;5485;37.558;126.950;2023-04-06T14:37:51;7.90;99.90
10864;DHT22;5485;37.558;126.950;2023-04-06T14:40:18;7.80;99.90
10864;DHT22;5485;37.558;126.950;2023-04-06T14:42:45;7.80;99.90
10864;DHT22;5485;37.558;126.950;2023-04-06T14:45:15;7.80;99.90
10864;DHT22;5485;37.558;126.950;2023-04-06T14:47:43;7.80;99.90
10864;DHT22;5485;37.558;126.950;2023-04-06T14:50:10;7.80;99.90
10864;DHT22;5485;37.558;126.950;2023-04-06T14:55:04;7.60;99.90
10864;DHT22;5485;37.558;126.950;2023-04-06T14:57:31;7.70;99.90
10864;DHT22;5485;37.558;126.950;2023-04-06T14:59:58;7.70;99.90
10864;DHT22;5485;37.558;126.950;2023-04-06T15:02:28;7.70;99.90
10864;DHT22;5485;37.558;126.950;2023-04-06T15:04:55;7.70;99.90
10864;DHT22;5485;37.558;126.950;2023-04-06T15:07:23;7.70;99.90
10864;DHT22;5485;37.558;126.950;2023-04-06T15:09:51;7.70;99.90
10864;DHT22;5485;37.558;126.950;2023-04-06T15:12:21;7.70;99.90
10864;DHT22;5485;37.558;126.950;2023-04-06T15:14:47;7.60;99.90
10864;DHT22;5485;37.558;126.950;2023-04-06T15:17:14;7.60;99.90
10864;DHT22;5485;37.558;126.950;2023-04-06T15:19:41;7.60;99.90
10864;DHT22;5485;37.558;126.950;2023-04-06T15:22:08;7.60;99.90
10864;DHT22;5485;37.558;126.950;2023-04-06T15:24:37;7.50;99.90
10864;DHT22;5485;37.558;126.950;2023-04-06T15:27:04;7.50;99.90
10864;DHT22;5485;37.558;126.950;2023-04-06T15:29:32;7.50;99.90
10864;DHT22;5485;37.558;126.950;2023-04-06T15:32:01;7.40;99.90
10864;DHT22;5485;37.558;126.950;2023-04-06T15:34:30;7.40;99.90
10864;DHT22;5485;37.558;126.950;2023-04-06T15:37:00;7.40;99.90
10864;DHT22;5485;37.558;126.950;2023-04-06T15:39:28;7.30;99.90
10864;DHT22;5485;37.558;126.950;2023-04-06T15:41:55;7.30;99.90
10864;DHT22;5485;37.558;126.950;2023-04-06T15:44:23;7.40;99.90